sensor_id;sensor_type;location;lat;lon;timestamp;P1;durP1;ratioP1;P2;durP2;ratioP2
13230;SDS011;6681;53.254;10.398;2023-07-30T00:01:20;6.47;;;4.33;;
13230;SDS011;6681;53.254;10.398;2023-07-30T00:03:45;3.30;;;3.03;;
13230;SDS011;6681;53.254;10.398;2023-07-30T00:06:11;3.90;;;2.70;;
13230;SDS011;6681;53.254;10.398;2023-07-30T00:08:36;3.53;;;3.13;;
13230;SDS011;6681;53.254;10.398;2023-07-30T00:11:02;3.67;;;2.93;;
13230;SDS011;6681;53.254;10.398;2023-07-30T00:13:28;5.47;;;4.03;;
13230;SDS011;6681;53.254;10.398;2023-07-30T00:15:53;5.10;;;2.77;;
13230;SDS011;6681;53.254;10.398;2023-07-30T00:18:19;3.20;;;3.00;;
13230;SDS011;6681;53.254;10.398;2023-07-30T00:20:45;3.40;;;2.80;;
13230;SDS011;6681;53.254;10.398;2023-07-30T00:23:10;2.87;;;2.67;;
13230;SDS011;6681;53.254;10.398;2023-07-30T00:25:36;3.53;;;2.47;;
13230;SDS011;6681;53.254;10.398;2023-07-30T00:28:02;3.00;;;2.80;;
13230;SDS011;6681;53.254;10.398;2023-07-30T00:30:28;3.60;;;2.73;;
13230;SDS011;6681;53.254;10.398;2023-07-30T00:32:53;2.90;;;2.60;;
13230;SDS011;6681;53.254;10.398;2023-07-30T00:35:19;3.50;;;2.83;;
13230;SDS011;6681;53.254;10.398;2023-07-30T00:37:45;3.13;;;2.60;;
13230;SDS011;6681;53.254;10.398;2023-07-30T00:40:10;4.40;;;2.80;;
13230;SDS011;6681;53.254;10.398;2023-07-30T00:42:37;4.13;;;2.73;;
13230;SDS011;6681;53.254;10.398;2023-07-30T00:45:02;2.63;;;2.10;;
13230;SDS011;6681;53.254;10.398;2023-07-30T00:47:29;2.80;;;2.50;;
13230;SDS011;6681;53.254;10.398;2023-07-30T00:49:55;4.00;;;2.60;;
13230;SDS011;6681;53.254;10.398;2023-07-30T00:52:21;4.33;;;2.57;;
13230;SDS011;6681;53.254;10.398;2023-07-30T00:54:48;2.30;;;2.17;;
13230;SDS011;6681;53.254;10.398;2023-07-30T00:57:15;3.33;;;2.43;;
13230;SDS011;6681;53.254;10.398;2023-07-30T00:59:43;2.43;;;2.33;;
13230;SDS011;6681;53.254;10.398;2023-07-30T01:02:09;9.23;;;3.30;;
13230;SDS011;6681;53.254;10.398;2023-07-30T01:04:35;2.77;;;2.57;;
13230;SDS011;6681;53.254;10.398;2023-07-30T01:07:04;3.57;;;3.27;;
13230;SDS011;6681;53.254;10.398;2023-07-30T01:09:31;4.10;;;2.73;;
13230;SDS011;6681;53.254;10.398;2023-07-30T01:11:57;3.10;;;2.27;;
13230;SDS011;6681;53.254;10.398;2023-07-30T01:14:24;2.67;;;2.47;;
13230;SDS011;6681;53.254;10.398;2023-07-30T01:16:51;3.57;;;2.87;;
13230;SDS011;6681;53.254;10.398;2023-07-30T01:19:17;2.53;;;2.33;;
13230;SDS011;6681;53.254;10.398;2023-07-30T01:21:43;3.57;;;2.47;;
13230;SDS011;6681;53.254;10.398;2023-07-30T01:24:09;10.33;;;2.67;;
13230;SDS011;6681;53.254;10.398;2023-07-30T01:26:45;3.87;;;2.63;;
13230;SDS011;6681;53.254;10.398;2023-07-30T01:29:25;3.17;;;2.87;;
13230;SDS011;6681;53.254;10.398;2023-07-30T01:31:57;3.23;;;3.00;;
13230;SDS011;6681;53.254;10.398;2023-07-30T01:34:27;4.20;;;2.50;;
13230;SDS011;6681;53.254;10.398;2023-07-30T01:36:55;2.50;;;2.33;;
13230;SDS011;6681;53.254;10.398;2023-07-30T01:39:22;2.33;;;2.23;;
13230;SDS011;6681;53.254;10.398;2023-07-30T01:41:49;5.83;;;3.80;;
13230;SDS011;6681;53.254;10.398;2023-07-30T01:44:14;2.23;;;1.97;;
13230;SDS011;6681;53.254;10.398;2023-07-30T01:46:40;3.10;;;2.17;;
13230;SDS011;6681;53.254;10.398;2023-07-30T01:49:06;3.63;;;2.27;;
13230;SDS011;6681;53.254;10.398;2023-07-30T01:51:31;4.77;;;3.40;;
13230;SDS011;6681;53.254;10.398;2023-07-30T01:53:57;2.40;;;2.20;;
13230;SDS011;6681;53.254;10.398;2023-07-30T01:56:22;4.13;;;3.23;;
13230;SDS011;6681;53.254;10.398;2023-07-30T01:58:48;3.77;;;2.30;;
13230;SDS011;6681;53.254;10.398;2023-07-30T02:01:14;3.30;;;1.83;;
13230;SDS011;6681;53.254;10.398;2023-07-30T02:03:40;3.13;;;2.93;;
13230;SDS011;6681;53.254;10.398;2023-07-30T02:06:06;3.40;;;2.93;;
13230;SDS011;6681;53.254;10.398;2023-07-30T02:08:32;3.47;;;2.90;;
13230;SDS011;6681;53.254;10.398;2023-07-30T02:10:58;4.00;;;2.67;;
13230;SDS011;6681;53.254;10.398;2023-07-30T02:13:24;2.67;;;2.47;;
13230;SDS011;6681;53.254;10.398;2023-07-30T02:15:50;6.07;;;3.60;;
13230;SDS011;6681;53.254;10.398;2023-07-30T02:18:16;4.50;;;3.73;;
13230;SDS011;6681;53.254;10.398;2023-07-30T02:20:42;7.67;;;3.07;;
13230;SDS011;6681;53.254;10.398;2023-07-30T02:23:07;4.07;;;2.53;;
13230;SDS011;6681;53.254;10.398;2023-07-30T02:25:33;6.83;;;3.57;;
13230;SDS011;6681;53.254;10.398;2023-07-30T02:28:00;4.20;;;3.80;;
13230;SDS011;6681;53.254;10.398;2023-07-30T02:30:26;5.20;;;3.80;;
13230;SDS011;6681;53.254;10.398;2023-07-30T02:32:52;6.20;;;3.73;;
13230;SDS011;6681;53.254;10.398;2023-07-30T02:35:18;4.90;;;3.33;;
13230;SDS011;6681;53.254;10.398;2023-07-30T02:37:43;3.50;;;3.20;;
13230;SDS011;6681;53.254;10.398;2023-07-30T02:40:09;7.00;;;4.83;;
13230;SDS011;6681;53.254;10.398;2023-07-30T02:42:35;4.60;;;4.20;;
13230;SDS011;6681;53.254;10.398;2023-07-30T02:45:01;4.47;;;4.07;;
13230;SDS011;6681;53.254;10.398;2023-07-30T02:47:27;4.83;;;4.43;;
13230;SDS011;6681;53.254;10.398;2023-07-30T02:49:52;5.73;;;4.13;;
13230;SDS011;6681;53.254;10.398;2023-07-30T02:52:18;5.10;;;4.53;;
13230;SDS011;6681;53.254;10.398;2023-07-30T02:54:44;3.23;;;2.63;;
13230;SDS011;6681;53.254;10.398;2023-07-30T02:57:09;6.23;;;4.30;;
13230;SDS011;6681;53.254;10.398;2023-07-30T02:59:36;5.83;;;5.27;;
13230;SDS011;6681;53.254;10.398;2023-07-30T03:02:02;4.43;;;4.03;;
13230;SDS011;6681;53.254;10.398;2023-07-30T03:04:30;6.10;;;4.37;;
13230;SDS011;6681;53.254;10.398;2023-07-30T03:06:56;4.33;;;4.00;;
13230;SDS011;6681;53.254;10.398;2023-07-30T03:09:21;7.50;;;4.60;;
13230;SDS011;6681;53.254;10.398;2023-07-30T03:11:47;12.27;;;4.83;;
13230;SDS011;6681;53.254;10.398;2023-07-30T03:14:16;5.53;;;4.43;;
13230;SDS011;6681;53.254;10.398;2023-07-30T03:16:45;8.63;;;5.33;;
13230;SDS011;6681;53.254;10.398;2023-07-30T03:19:14;4.43;;;4.00;;
13230;SDS011;6681;53.254;10.398;2023-07-30T03:21:40;4.87;;;4.33;;
13230;SDS011;6681;53.254;10.398;2023-07-30T03:24:06;5.30;;;4.33;;
13230;SDS011;6681;53.254;10.398;2023-07-30T03:26:32;4.57;;;4.17;;
13230;SDS011;6681;53.254;10.398;2023-07-30T03:28:57;4.23;;;3.77;;
13230;SDS011;6681;53.254;10.398;2023-07-30T03:31:23;6.03;;;5.37;;
13230;SDS011;6681;53.254;10.398;2023-07-30T03:33:49;5.07;;;3.80;;
13230;SDS011;6681;53.254;10.398;2023-07-30T03:36:14;4.90;;;4.30;;
13230;SDS011;6681;53.254;10.398;2023-07-30T03:38:40;5.43;;;4.67;;
13230;SDS011;6681;53.254;10.398;2023-07-30T03:41:07;4.87;;;4.47;;
13230;SDS011;6681;53.254;10.398;2023-07-30T03:43:33;5.50;;;3.93;;
13230;SDS011;6681;53.254;10.398;2023-07-30T03:45:59;5.90;;;3.80;;
13230;SDS011;6681;53.254;10.398;2023-07-30T03:48:24;6.20;;;4.20;;
13230;SDS011;6681;53.254;10.398;2023-07-30T03:50:50;4.93;;;3.87;;
13230;SDS011;6681;53.254;10.398;2023-07-30T03:53:17;4.07;;;3.67;;
13230;SDS011;6681;53.254;10.398;2023-07-30T03:55:42;8.37;;;4.53;;
13230;SDS011;6681;53.254;10.398;2023-07-30T03:58:08;4.20;;;3.70;;
13230;SDS011;6681;53.254;10.398;2023-07-30T04:00:33;4.67;;;3.50;;
13230;SDS011;6681;53.254;10.398;2023-07-30T04:02:59;6.43;;;3.63;;
13230;SDS011;6681;53.254;10.398;2023-07-30T04:05:25;5.80;;;4.93;;
13230;SDS011;6681;53.254;10.398;2023-07-30T04:07:50;7.57;;;3.93;;
13230;SDS011;6681;53.254;10.398;2023-07-30T04:10:16;5.13;;;3.93;;
13230;SDS011;6681;53.254;10.398;2023-07-30T04:12:41;3.17;;;2.90;;
13230;SDS011;6681;53.254;10.398;2023-07-30T04:15:07;3.03;;;2.77;;
13230;SDS011;6681;53.254;10.398;2023-07-30T04:17:35;4.17;;;3.10;;
13230;SDS011;6681;53.254;10.398;2023-07-30T04:20:01;4.40;;;3.93;;
13230;SDS011;6681;53.254;10.398;2023-07-30T04:22:27;5.10;;;3.37;;
13230;SDS011;6681;53.254;10.398;2023-07-30T04:24:53;2.67;;;2.47;;
13230;SDS011;6681;53.254;10.398;2023-07-30T04:27:19;8.63;;;4.67;;
13230;SDS011;6681;53.254;10.398;2023-07-30T04:29:44;3.90;;;3.40;;
13230;SDS011;6681;53.254;10.398;2023-07-30T04:32:10;5.83;;;3.63;;
13230;SDS011;6681;53.254;10.398;2023-07-30T04:34:36;4.10;;;3.40;;
13230;SDS011;6681;53.254;10.398;2023-07-30T04:37:01;6.33;;;4.17;;
13230;SDS011;6681;53.254;10.398;2023-07-30T04:39:27;5.03;;;4.03;;
13230;SDS011;6681;53.254;10.398;2023-07-30T04:41:54;9.93;;;4.67;;
13230;SDS011;6681;53.254;10.398;2023-07-30T04:44:20;6.10;;;4.27;;
13230;SDS011;6681;53.254;10.398;2023-07-30T04:46:45;6.60;;;4.50;;
13230;SDS011;6681;53.254;10.398;2023-07-30T04:49:11;7.30;;;5.30;;
13230;SDS011;6681;53.254;10.398;2023-07-30T04:51:36;7.67;;;4.40;;
13230;SDS011;6681;53.254;10.398;2023-07-30T04:54:03;9.33;;;5.73;;
13230;SDS011;6681;53.254;10.398;2023-07-30T04:56:29;4.87;;;3.63;;
13230;SDS011;6681;53.254;10.398;2023-07-30T04:58:54;7.40;;;4.30;;
13230;SDS011;6681;53.254;10.398;2023-07-30T05:01:20;4.83;;;4.23;;
13230;SDS011;6681;53.254;10.398;2023-07-30T05:03:46;4.93;;;4.03;;
13230;SDS011;6681;53.254;10.398;2023-07-30T05:06:11;5.67;;;4.60;;
13230;SDS011;6681;53.254;10.398;2023-07-30T05:08:37;6.60;;;4.43;;
13230;SDS011;6681;53.254;10.398;2023-07-30T05:11:03;6.80;;;3.83;;
13230;SDS011;6681;53.254;10.398;2023-07-30T05:13:28;6.47;;;5.13;;
13230;SDS011;6681;53.254;10.398;2023-07-30T05:15:54;5.50;;;4.53;;
13230;SDS011;6681;53.254;10.398;2023-07-30T05:18:20;5.97;;;5.47;;
13230;SDS011;6681;53.254;10.398;2023-07-30T05:20:46;7.70;;;4.10;;
13230;SDS011;6681;53.254;10.398;2023-07-30T05:23:11;8.80;;;5.37;;
13230;SDS011;6681;53.254;10.398;2023-07-30T05:25:37;6.07;;;5.47;;
13230;SDS011;6681;53.254;10.398;2023-07-30T05:28:02;6.37;;;5.47;;
13230;SDS011;6681;53.254;10.398;2023-07-30T05:30:28;5.63;;;5.13;;
13230;SDS011;6681;53.254;10.398;2023-07-30T05:32:54;6.37;;;5.57;;
13230;SDS011;6681;53.254;10.398;2023-07-30T05:35:19;8.30;;;6.77;;
13230;SDS011;6681;53.254;10.398;2023-07-30T05:37:45;7.73;;;6.13;;
13230;SDS011;6681;53.254;10.398;2023-07-30T05:40:10;9.47;;;6.70;;
13230;SDS011;6681;53.254;10.398;2023-07-30T05:42:36;8.73;;;6.90;;
13230;SDS011;6681;53.254;10.398;2023-07-30T05:45:02;9.00;;;6.73;;
13230;SDS011;6681;53.254;10.398;2023-07-30T05:47:28;7.67;;;6.53;;
13230;SDS011;6681;53.254;10.398;2023-07-30T05:49:53;7.77;;;6.97;;
13230;SDS011;6681;53.254;10.398;2023-07-30T05:52:19;8.97;;;6.97;;
13230;SDS011;6681;53.254;10.398;2023-07-30T05:54:45;10.30;;;7.87;;
13230;SDS011;6681;53.254;10.398;2023-07-30T05:57:10;7.87;;;7.10;;
13230;SDS011;6681;53.254;10.398;2023-07-30T05:59:36;12.20;;;6.97;;
13230;SDS011;6681;53.254;10.398;2023-07-30T06:02:02;10.73;;;6.80;;
13230;SDS011;6681;53.254;10.398;2023-07-30T06:04:29;12.07;;;6.67;;
13230;SDS011;6681;53.254;10.398;2023-07-30T06:06:55;11.90;;;7.17;;
13230;SDS011;6681;53.254;10.398;2023-07-30T06:09:20;11.33;;;6.00;;
13230;SDS011;6681;53.254;10.398;2023-07-30T06:11:46;11.70;;;6.47;;
13230;SDS011;6681;53.254;10.398;2023-07-30T06:14:12;10.30;;;5.53;;
13230;SDS011;6681;53.254;10.398;2023-07-30T06:16:37;9.90;;;5.40;;
13230;SDS011;6681;53.254;10.398;2023-07-30T06:19:03;9.53;;;5.47;;
13230;SDS011;6681;53.254;10.398;2023-07-30T06:21:28;7.30;;;5.63;;
13230;SDS011;6681;53.254;10.398;2023-07-30T06:23:54;10.83;;;6.13;;
13230;SDS011;6681;53.254;10.398;2023-07-30T06:26:20;16.87;;;7.87;;
13230;SDS011;6681;53.254;10.398;2023-07-30T06:28:45;12.17;;;6.97;;
13230;SDS011;6681;53.254;10.398;2023-07-30T06:31:11;12.63;;;6.70;;
13230;SDS011;6681;53.254;10.398;2023-07-30T06:33:36;14.00;;;7.60;;
13230;SDS011;6681;53.254;10.398;2023-07-30T06:36:03;9.57;;;7.60;;
13230;SDS011;6681;53.254;10.398;2023-07-30T06:38:29;9.60;;;7.03;;
13230;SDS011;6681;53.254;10.398;2023-07-30T06:40:54;11.20;;;6.80;;
13230;SDS011;6681;53.254;10.398;2023-07-30T06:43:22;13.63;;;7.47;;
13230;SDS011;6681;53.254;10.398;2023-07-30T06:45:48;10.73;;;7.30;;
13230;SDS011;6681;53.254;10.398;2023-07-30T06:48:14;11.37;;;6.50;;
13230;SDS011;6681;53.254;10.398;2023-07-30T06:50:40;8.43;;;7.07;;
13230;SDS011;6681;53.254;10.398;2023-07-30T06:53:06;10.33;;;6.83;;
13230;SDS011;6681;53.254;10.398;2023-07-30T06:55:32;10.73;;;6.13;;
13230;SDS011;6681;53.254;10.398;2023-07-30T06:57:58;14.33;;;6.70;;
13230;SDS011;6681;53.254;10.398;2023-07-30T07:00:24;13.37;;;6.90;;
13230;SDS011;6681;53.254;10.398;2023-07-30T07:02:50;12.27;;;7.10;;
13230;SDS011;6681;53.254;10.398;2023-07-30T07:05:15;17.40;;;8.37;;
13230;SDS011;6681;53.254;10.398;2023-07-30T07:07:41;16.43;;;7.27;;
13230;SDS011;6681;53.254;10.398;2023-07-30T07:10:07;10.47;;;5.83;;
13230;SDS011;6681;53.254;10.398;2023-07-30T07:12:35;14.43;;;6.40;;
13230;SDS011;6681;53.254;10.398;2023-07-30T07:15:02;11.00;;;7.07;;
13230;SDS011;6681;53.254;10.398;2023-07-30T07:17:28;10.53;;;5.50;;
13230;SDS011;6681;53.254;10.398;2023-07-30T07:19:54;11.77;;;6.27;;
13230;SDS011;6681;53.254;10.398;2023-07-30T07:22:19;10.77;;;5.73;;
13230;SDS011;6681;53.254;10.398;2023-07-30T07:24:45;11.27;;;6.50;;
13230;SDS011;6681;53.254;10.398;2023-07-30T07:27:11;12.23;;;5.10;;
13230;SDS011;6681;53.254;10.398;2023-07-30T07:29:37;11.17;;;5.57;;
13230;SDS011;6681;53.254;10.398;2023-07-30T07:32:03;12.80;;;5.03;;
13230;SDS011;6681;53.254;10.398;2023-07-30T07:34:29;9.63;;;4.80;;
13230;SDS011;6681;53.254;10.398;2023-07-30T07:36:54;9.67;;;4.20;;
13230;SDS011;6681;53.254;10.398;2023-07-30T07:39:20;12.33;;;5.33;;
13230;SDS011;6681;53.254;10.398;2023-07-30T07:41:46;6.40;;;4.30;;
13230;SDS011;6681;53.254;10.398;2023-07-30T07:44:11;9.40;;;4.97;;
13230;SDS011;6681;53.254;10.398;2023-07-30T07:46:37;8.13;;;3.57;;
13230;SDS011;6681;53.254;10.398;2023-07-30T07:49:03;9.23;;;4.13;;
13230;SDS011;6681;53.254;10.398;2023-07-30T07:51:28;6.13;;;4.27;;
13230;SDS011;6681;53.254;10.398;2023-07-30T07:53:54;9.00;;;3.30;;
13230;SDS011;6681;53.254;10.398;2023-07-30T07:56:19;9.60;;;3.83;;
13230;SDS011;6681;53.254;10.398;2023-07-30T07:58:45;10.73;;;3.67;;
13230;SDS011;6681;53.254;10.398;2023-07-30T08:01:11;6.67;;;3.70;;
13230;SDS011;6681;53.254;10.398;2023-07-30T08:03:36;5.43;;;3.00;;
13230;SDS011;6681;53.254;10.398;2023-07-30T08:06:02;16.03;;;3.87;;
13230;SDS011;6681;53.254;10.398;2023-07-30T08:08:28;9.63;;;3.43;;
13230;SDS011;6681;53.254;10.398;2023-07-30T08:10:54;6.93;;;3.20;;
13230;SDS011;6681;53.254;10.398;2023-07-30T08:13:19;10.60;;;4.60;;
13230;SDS011;6681;53.254;10.398;2023-07-30T08:15:45;6.77;;;3.57;;
13230;SDS011;6681;53.254;10.398;2023-07-30T08:18:11;4.63;;;2.90;;
13230;SDS011;6681;53.254;10.398;2023-07-30T08:20:37;12.97;;;3.23;;
13230;SDS011;6681;53.254;10.398;2023-07-30T08:23:03;9.77;;;3.30;;
13230;SDS011;6681;53.254;10.398;2023-07-30T08:25:28;4.33;;;2.83;;
13230;SDS011;6681;53.254;10.398;2023-07-30T08:27:54;7.70;;;2.90;;
13230;SDS011;6681;53.254;10.398;2023-07-30T08:30:20;8.30;;;3.13;;
13230;SDS011;6681;53.254;10.398;2023-07-30T08:32:46;5.47;;;2.70;;
13230;SDS011;6681;53.254;10.398;2023-07-30T08:35:11;4.70;;;2.13;;
13230;SDS011;6681;53.254;10.398;2023-07-30T08:37:37;6.47;;;2.47;;
13230;SDS011;6681;53.254;10.398;2023-07-30T08:40:03;9.17;;;3.93;;
13230;SDS011;6681;53.254;10.398;2023-07-30T08:42:29;7.20;;;3.00;;
13230;SDS011;6681;53.254;10.398;2023-07-30T08:44:55;3.97;;;3.07;;
13230;SDS011;6681;53.254;10.398;2023-07-30T08:47:20;7.13;;;2.70;;
13230;SDS011;6681;53.254;10.398;2023-07-30T08:49:46;8.00;;;3.53;;
13230;SDS011;6681;53.254;10.398;2023-07-30T08:52:12;7.23;;;2.77;;
13230;SDS011;6681;53.254;10.398;2023-07-30T08:54:38;7.47;;;2.63;;
13230;SDS011;6681;53.254;10.398;2023-07-30T08:57:06;5.70;;;2.63;;
13230;SDS011;6681;53.254;10.398;2023-07-30T08:59:54;5.40;;;3.10;;
13230;SDS011;6681;53.254;10.398;2023-07-30T09:02:43;5.17;;;2.60;;
13230;SDS011;6681;53.254;10.398;2023-07-30T09:05:16;6.00;;;2.20;;
13230;SDS011;6681;53.254;10.398;2023-07-30T09:07:41;9.00;;;3.47;;
13230;SDS011;6681;53.254;10.398;2023-07-30T09:10:07;10.10;;;2.30;;
13230;SDS011;6681;53.254;10.398;2023-07-30T09:12:34;4.90;;;2.53;;
13230;SDS011;6681;53.254;10.398;2023-07-30T09:15:01;5.40;;;3.20;;
13230;SDS011;6681;53.254;10.398;2023-07-30T09:17:29;12.20;;;3.07;;
13230;SDS011;6681;53.254;10.398;2023-07-30T09:19:55;6.50;;;3.03;;
13230;SDS011;6681;53.254;10.398;2023-07-30T09:22:24;12.07;;;4.03;;
13230;SDS011;6681;53.254;10.398;2023-07-30T09:24:51;7.40;;;2.13;;
13230;SDS011;6681;53.254;10.398;2023-07-30T09:27:19;9.00;;;3.07;;
13230;SDS011;6681;53.254;10.398;2023-07-30T09:29:57;5.27;;;2.50;;
13230;SDS011;6681;53.254;10.398;2023-07-30T09:32:28;6.33;;;3.13;;
13230;SDS011;6681;53.254;10.398;2023-07-30T09:34:55;8.47;;;2.50;;
13230;SDS011;6681;53.254;10.398;2023-07-30T09:37:30;5.13;;;2.33;;
13230;SDS011;6681;53.254;10.398;2023-07-30T09:39:57;8.70;;;2.23;;
13230;SDS011;6681;53.254;10.398;2023-07-30T09:42:26;4.47;;;2.93;;
13230;SDS011;6681;53.254;10.398;2023-07-30T09:44:52;7.83;;;3.10;;
13230;SDS011;6681;53.254;10.398;2023-07-30T09:47:18;7.43;;;3.30;;
13230;SDS011;6681;53.254;10.398;2023-07-30T09:49:43;10.20;;;2.30;;
13230;SDS011;6681;53.254;10.398;2023-07-30T09:52:09;3.53;;;1.90;;
13230;SDS011;6681;53.254;10.398;2023-07-30T09:54:36;4.83;;;2.47;;
13230;SDS011;6681;53.254;10.398;2023-07-30T09:57:04;9.70;;;2.00;;
13230;SDS011;6681;53.254;10.398;2023-07-30T09:59:30;11.80;;;2.77;;
13230;SDS011;6681;53.254;10.398;2023-07-30T10:01:56;5.07;;;2.37;;
13230;SDS011;6681;53.254;10.398;2023-07-30T10:04:23;7.93;;;3.10;;
13230;SDS011;6681;53.254;10.398;2023-07-30T10:06:54;5.03;;;2.50;;
13230;SDS011;6681;53.254;10.398;2023-07-30T10:09:27;9.43;;;2.17;;
13230;SDS011;6681;53.254;10.398;2023-07-30T10:11:57;7.17;;;2.73;;
13230;SDS011;6681;53.254;10.398;2023-07-30T10:14:25;4.47;;;3.67;;
13230;SDS011;6681;53.254;10.398;2023-07-30T10:16:55;4.73;;;2.47;;
13230;SDS011;6681;53.254;10.398;2023-07-30T10:19:28;3.63;;;2.07;;
13230;SDS011;6681;53.254;10.398;2023-07-30T10:22:19;5.50;;;2.40;;
13230;SDS011;6681;53.254;10.398;2023-07-30T10:25:03;6.43;;;4.23;;
13230;SDS011;6681;53.254;10.398;2023-07-30T10:27:36;7.60;;;5.37;;
13230;SDS011;6681;53.254;10.398;2023-07-30T10:38:11;5.10;;;2.70;;
13230;SDS011;6681;53.254;10.398;2023-07-30T10:43:46;6.67;;;2.23;;
13230;SDS011;6681;53.254;10.398;2023-07-30T10:46:14;4.37;;;2.53;;
13230;SDS011;6681;53.254;10.398;2023-07-30T10:48:42;12.67;;;3.83;;
13230;SDS011;6681;53.254;10.398;2023-07-30T10:51:09;7.40;;;2.87;;
13230;SDS011;6681;53.254;10.398;2023-07-30T10:53:37;4.60;;;2.10;;
13230;SDS011;6681;53.254;10.398;2023-07-30T10:56:04;4.27;;;3.10;;
13230;SDS011;6681;53.254;10.398;2023-07-30T10:58:31;7.33;;;3.10;;
13230;SDS011;6681;53.254;10.398;2023-07-30T11:00:58;6.33;;;3.13;;
13230;SDS011;6681;53.254;10.398;2023-07-30T11:03:26;6.17;;;2.70;;
13230;SDS011;6681;53.254;10.398;2023-07-30T11:05:52;10.20;;;4.27;;
13230;SDS011;6681;53.254;10.398;2023-07-30T11:11:03;14.23;;;3.53;;
13230;SDS011;6681;53.254;10.398;2023-07-30T11:13:34;5.83;;;2.27;;
13230;SDS011;6681;53.254;10.398;2023-07-30T11:16:12;3.60;;;2.40;;
13230;SDS011;6681;53.254;10.398;2023-07-30T11:18:38;4.93;;;3.30;;
13230;SDS011;6681;53.254;10.398;2023-07-30T11:21:05;5.63;;;2.07;;
13230;SDS011;6681;53.254;10.398;2023-07-30T11:23:32;4.57;;;3.13;;
13230;SDS011;6681;53.254;10.398;2023-07-30T11:25:59;5.37;;;3.17;;
13230;SDS011;6681;53.254;10.398;2023-07-30T11:30:59;4.43;;;3.53;;
13230;SDS011;6681;53.254;10.398;2023-07-30T11:33:30;7.67;;;2.33;;
13230;SDS011;6681;53.254;10.398;2023-07-30T11:35:56;3.27;;;2.73;;
13230;SDS011;6681;53.254;10.398;2023-07-30T11:38:23;6.60;;;2.80;;
13230;SDS011;6681;53.254;10.398;2023-07-30T11:40:50;4.27;;;2.40;;
13230;SDS011;6681;53.254;10.398;2023-07-30T11:43:17;7.50;;;2.67;;
13230;SDS011;6681;53.254;10.398;2023-07-30T11:45:43;4.23;;;2.43;;
13230;SDS011;6681;53.254;10.398;2023-07-30T11:48:10;5.93;;;2.63;;
13230;SDS011;6681;53.254;10.398;2023-07-30T11:50:43;8.77;;;3.80;;
13230;SDS011;6681;53.254;10.398;2023-07-30T11:53:14;7.00;;;2.50;;
13230;SDS011;6681;53.254;10.398;2023-07-30T11:55:41;11.00;;;2.93;;
13230;SDS011;6681;53.254;10.398;2023-07-30T11:58:08;6.40;;;3.20;;
13230;SDS011;6681;53.254;10.398;2023-07-30T12:00:35;4.60;;;2.53;;
13230;SDS011;6681;53.254;10.398;2023-07-30T12:03:05;9.80;;;3.13;;
13230;SDS011;6681;53.254;10.398;2023-07-30T12:05:34;7.07;;;2.57;;
13230;SDS011;6681;53.254;10.398;2023-07-30T12:08:01;6.40;;;2.90;;
13230;SDS011;6681;53.254;10.398;2023-07-30T12:10:40;4.80;;;2.43;;
13230;SDS011;6681;53.254;10.398;2023-07-30T12:13:26;8.47;;;3.63;;
13230;SDS011;6681;53.254;10.398;2023-07-30T12:15:52;7.00;;;2.57;;
13230;SDS011;6681;53.254;10.398;2023-07-30T12:18:19;5.60;;;2.50;;
13230;SDS011;6681;53.254;10.398;2023-07-30T12:20:46;4.90;;;2.33;;
13230;SDS011;6681;53.254;10.398;2023-07-30T12:23:13;7.73;;;2.30;;
13230;SDS011;6681;53.254;10.398;2023-07-30T12:25:39;3.87;;;2.77;;
13230;SDS011;6681;53.254;10.398;2023-07-30T12:28:05;10.13;;;1.83;;
13230;SDS011;6681;53.254;10.398;2023-07-30T12:30:30;7.57;;;2.50;;
13230;SDS011;6681;53.254;10.398;2023-07-30T12:32:58;5.07;;;2.20;;
13230;SDS011;6681;53.254;10.398;2023-07-30T12:35:23;5.37;;;2.37;;
13230;SDS011;6681;53.254;10.398;2023-07-30T12:37:49;3.63;;;2.10;;
13230;SDS011;6681;53.254;10.398;2023-07-30T12:40:15;5.97;;;3.27;;
13230;SDS011;6681;53.254;10.398;2023-07-30T12:42:41;5.13;;;2.50;;
13230;SDS011;6681;53.254;10.398;2023-07-30T12:45:07;5.87;;;2.00;;
13230;SDS011;6681;53.254;10.398;2023-07-30T12:47:33;15.00;;;2.80;;
13230;SDS011;6681;53.254;10.398;2023-07-30T12:50:02;4.77;;;2.00;;
13230;SDS011;6681;53.254;10.398;2023-07-30T12:52:28;6.43;;;2.00;;
13230;SDS011;6681;53.254;10.398;2023-07-30T12:54:54;5.17;;;2.37;;
13230;SDS011;6681;53.254;10.398;2023-07-30T12:57:19;5.67;;;2.07;;
13230;SDS011;6681;53.254;10.398;2023-07-30T12:59:45;10.40;;;2.47;;
13230;SDS011;6681;53.254;10.398;2023-07-30T13:02:10;4.87;;;2.70;;
13230;SDS011;6681;53.254;10.398;2023-07-30T13:04:36;3.10;;;2.03;;
13230;SDS011;6681;53.254;10.398;2023-07-30T13:07:02;2.90;;;1.70;;
13230;SDS011;6681;53.254;10.398;2023-07-30T13:09:28;2.70;;;2.20;;
13230;SDS011;6681;53.254;10.398;2023-07-30T13:11:54;4.67;;;2.00;;
13230;SDS011;6681;53.254;10.398;2023-07-30T13:14:19;3.47;;;2.33;;
13230;SDS011;6681;53.254;10.398;2023-07-30T13:16:45;7.90;;;2.63;;
13230;SDS011;6681;53.254;10.398;2023-07-30T13:19:10;2.80;;;1.77;;
13230;SDS011;6681;53.254;10.398;2023-07-30T13:21:36;3.50;;;2.13;;
13230;SDS011;6681;53.254;10.398;2023-07-30T13:24:02;3.33;;;1.70;;
13230;SDS011;6681;53.254;10.398;2023-07-30T13:26:28;3.30;;;1.10;;
13230;SDS011;6681;53.254;10.398;2023-07-30T13:28:54;3.20;;;1.23;;
13230;SDS011;6681;53.254;10.398;2023-07-30T13:31:19;5.03;;;1.57;;
13230;SDS011;6681;53.254;10.398;2023-07-30T13:33:45;4.33;;;2.03;;
13230;SDS011;6681;53.254;10.398;2023-07-30T13:36:12;3.57;;;1.33;;
13230;SDS011;6681;53.254;10.398;2023-07-30T13:38:38;1.90;;;1.60;;
13230;SDS011;6681;53.254;10.398;2023-07-30T13:41:04;6.20;;;1.80;;
13230;SDS011;6681;53.254;10.398;2023-07-30T13:43:30;3.77;;;1.53;;
13230;SDS011;6681;53.254;10.398;2023-07-30T13:45:56;3.17;;;2.03;;
13230;SDS011;6681;53.254;10.398;2023-07-30T13:48:23;6.23;;;2.03;;
13230;SDS011;6681;53.254;10.398;2023-07-30T13:50:49;8.17;;;2.00;;
13230;SDS011;6681;53.254;10.398;2023-07-30T13:53:15;5.73;;;2.10;;
13230;SDS011;6681;53.254;10.398;2023-07-30T13:55:40;3.80;;;2.17;;
13230;SDS011;6681;53.254;10.398;2023-07-30T13:58:06;4.60;;;1.87;;
13230;SDS011;6681;53.254;10.398;2023-07-30T14:00:33;6.97;;;2.57;;
13230;SDS011;6681;53.254;10.398;2023-07-30T14:02:58;7.67;;;2.93;;
13230;SDS011;6681;53.254;10.398;2023-07-30T14:05:24;6.63;;;2.63;;
13230;SDS011;6681;53.254;10.398;2023-07-30T14:07:49;3.17;;;1.47;;
13230;SDS011;6681;53.254;10.398;2023-07-30T14:10:18;1.10;;;1.00;;
13230;SDS011;6681;53.254;10.398;2023-07-30T14:12:44;4.90;;;1.40;;
13230;SDS011;6681;53.254;10.398;2023-07-30T14:15:10;2.73;;;1.40;;
13230;SDS011;6681;53.254;10.398;2023-07-30T14:17:36;1.73;;;0.80;;
13230;SDS011;6681;53.254;10.398;2023-07-30T14:20:01;1.10;;;1.00;;
13230;SDS011;6681;53.254;10.398;2023-07-30T14:22:27;5.80;;;1.10;;
13230;SDS011;6681;53.254;10.398;2023-07-30T14:24:53;1.27;;;0.90;;
13230;SDS011;6681;53.254;10.398;2023-07-30T14:27:18;1.70;;;1.00;;
13230;SDS011;6681;53.254;10.398;2023-07-30T14:29:44;1.60;;;1.37;;
13230;SDS011;6681;53.254;10.398;2023-07-30T14:32:10;3.10;;;0.93;;
13230;SDS011;6681;53.254;10.398;2023-07-30T14:34:36;2.20;;;1.17;;
13230;SDS011;6681;53.254;10.398;2023-07-30T14:37:01;3.03;;;1.70;;
13230;SDS011;6681;53.254;10.398;2023-07-30T14:39:27;3.23;;;1.27;;
13230;SDS011;6681;53.254;10.398;2023-07-30T14:41:52;3.73;;;2.00;;
13230;SDS011;6681;53.254;10.398;2023-07-30T14:44:18;5.07;;;1.37;;
13230;SDS011;6681;53.254;10.398;2023-07-30T14:46:44;1.30;;;1.20;;
13230;SDS011;6681;53.254;10.398;2023-07-30T14:49:10;1.90;;;1.40;;
13230;SDS011;6681;53.254;10.398;2023-07-30T14:51:35;2.80;;;1.40;;
13230;SDS011;6681;53.254;10.398;2023-07-30T14:54:01;6.00;;;1.87;;
13230;SDS011;6681;53.254;10.398;2023-07-30T14:56:28;3.27;;;1.80;;
13230;SDS011;6681;53.254;10.398;2023-07-30T14:58:53;1.37;;;1.27;;